Cairo, Egypt
Current Conditions -  °F | °C
As of 4:30 PM on Thursday 30 Oct 2014 (Local Time) from HECA Reporting Station
Scattered Clouds Scattered Clouds  
Wind Chill: 25°   Ceiling: Unl
Heat Index: 26°   Visibility: 6mi
Dew Point: 12°   Wind: 12mph
Humidity: 44%   Direction: 310°NW
Pressure: 29.94"   Gusts: NA
Location:  30.06°N, 31.25°E
Report Text: HECA 301430Z 31010KT 9999 SCT025 SCT070 25/12 Q1014 NOSIG
Loading
Personal Weather Stations






























Interactive Weather Map New forecast layout! Learn more

10-Day Weather Forecast

Advertisements
Track Severe Weather on mobile